Ns Clipper — A8GW6 — position and weather

sailwx.info

Track history (hours):
 
Tides and Currents Weather Stations Pressure Air Temp Water Temp Dewpoint Dewpoint Depression Visibility Wind Speed Wind Dir Waves Ship Positions

Ns Clipper

Last reported at 2017-Jul-16 15:46 UTC. Time now 2017-Jul-23 02:43 UTC.
Position N 01°13' E 103°55'.

Length 244 m; draft 8.4 m.

Type: Ship. MMSI: 636012661.

Date/timePositionNaut miles runAvg speedWind from/ knotsBaromVisibWave heightAir tempDewpointWater temp
2017-Jul-16 15:46N 01°13' E 103°55'1 5.2
2017-Jul-16 15:30N 01°14' E 103°54'1 0.1
2017-Jul-16 05:56N 01°15' E 103°55'1 3.0
2017-Jul-16 05:30N 01°14' E 103°53'4 8.3
2017-Jul-16 05:00N 01°12' E 103°50'2 4.8
2017-Jul-16 04:30N 01°12' E 103°47'0 0.2
2017-Jul-16 04:00N 01°12' E 103°47'0 0.1
2017-Jul-16 03:24N 01°12' E 103°48'0 0.0
2017-Jul-16 02:57N 01°12' E 103°48'0 0.0
2017-Jul-16 02:27N 01°12' E 103°48'0 0.0
2017-Jul-16 02:00N 01°12' E 103°48'0 0.0
2017-Jul-16 01:30N 01°12' E 103°48'0 0.0
2017-Jul-16 01:00N 01°12' E 103°48'0 0.0
2017-Jul-16 00:18N 01°12' E 103°48'0 0.0
2017-Jul-15 23:54N 01°12' E 103°48'0 0.0
2017-Jul-15 23:27N 01°12' E 103°48'0 0.0
2017-Jul-15 23:00N 01°12' E 103°48'0 0.0
2017-Jul-15 22:30N 01°12' E 103°48'0 0.0
2017-Jul-15 21:54N 01°12' E 103°48'0 0.0
2017-Jul-15 21:30N 01°12' E 103°48'0 0.0
2017-Jul-15 21:00N 01°12' E 103°48'0 0.0
2017-Jul-15 20:30N 01°12' E 103°48'0 0.0
2017-Jul-15 19:54N 01°12' E 103°48'0 0.0
2017-Jul-15 19:27N 01°12' E 103°48'0 0.0
2017-Jul-15 18:42N 01°12' E 103°48'0 0.0
2017-Jul-15 18:30N 01°12' E 103°48'0 0.0
2017-Jul-15 18:00N 01°12' E 103°48'0 0.2
2017-Jul-15 17:24N 01°12' E 103°47'0 0.3
2017-Jul-15 16:57N 01°12' E 103°47'0 0.0
2017-Jul-15 16:03N 01°11' E 103°47'0 0.0
2017-Jul-15 15:54N 01°11' E 103°47'0 0.0
2017-Jul-15 15:24N 01°12' E 103°47'0 0.0
2017-Jul-15 15:00N 01°12' E 103°47'0 0.0
2017-Jul-15 13:57N 01°12' E 103°47'0 0.1
2017-Jul-15 13:15N 01°12' E 103°47'0 0.1
2017-Jul-15 11:57N 01°11' E 103°47'0 0.2
2017-Jul-15 10:48N 01°12' E 103°47'0 0.0
2017-Jul-15 10:27N 01°12' E 103°47'0 0.1
2017-Jul-15 10:00N 01°12' E 103°48'0 0.0
2017-Jul-15 09:21N 01°12' E 103°48'0 0.2
2017-Jul-15 09:00N 01°12' E 103°47'0 0.0
2017-Jul-15 08:30N 01°12' E 103°47'0 0.1
2017-Jul-15 07:48N 01°12' E 103°47'0 0.0
2017-Jul-15 06:16N 01°12' E 103°47'0 0.4
2017-Jul-15 06:01N 01°12' E 103°47'0 0.9
2017-Jul-15 05:30N 01°11' E 103°47'2 3.3
2017-Jul-15 05:00N 01°11' E 103°49'3 6.2
2017-Jul-15 04:31N 01°12' E 103°52'6 1.0
2017-Jul-14 22:35N 01°16' E 103°57'0 3.6
2017-Jul-14 22:30N 01°16' E 103°57'3 4.8
2017-Jul-14 21:58N 01°16' E 103°59'3 5.5
2017-Jul-14 21:30N 01°16' E 104°02'  
Track history (hours):
 
Tides and Currents Weather Stations Pressure Air Temp Water Temp Dewpoint Dewpoint Depression Visibility Wind Speed Wind Dir Waves Ship Positions

Ns Clipper

Last reported at 2017-Jul-16 15:46 UTC. Time now 2017-Jul-23 02:43 UTC.
Position N 01°13' E 103°55'.

Length 244 m; draft 8.4 m.

Type: Ship. MMSI: 636012661.

Date/timePositionNaut miles runAvg speedWind from/ knotsBaromVisibWave heightAir tempDewpointWater temp
2017-Jul-16 15:46N 01°13' E 103°55'1 5.2
2017-Jul-16 15:30N 01°14' E 103°54'1 0.1
2017-Jul-16 05:56N 01°15' E 103°55'1 3.0
2017-Jul-16 05:30N 01°14' E 103°53'4 8.3
2017-Jul-16 05:00N 01°12' E 103°50'2 4.8
2017-Jul-16 04:30N 01°12' E 103°47'0 0.2
2017-Jul-16 04:00N 01°12' E 103°47'0 0.1
2017-Jul-16 03:24N 01°12' E 103°48'0 0.0
2017-Jul-16 02:57N 01°12' E 103°48'0 0.0
2017-Jul-16 02:27N 01°12' E 103°48'0 0.0
2017-Jul-16 02:00N 01°12' E 103°48'0 0.0
2017-Jul-16 01:30N 01°12' E 103°48'0 0.0
2017-Jul-16 01:00N 01°12' E 103°48'0 0.0
2017-Jul-16 00:18N 01°12' E 103°48'0 0.0
2017-Jul-15 23:54N 01°12' E 103°48'0 0.0
2017-Jul-15 23:27N 01°12' E 103°48'0 0.0
2017-Jul-15 23:00N 01°12' E 103°48'0 0.0
2017-Jul-15 22:30N 01°12' E 103°48'0 0.0
2017-Jul-15 21:54N 01°12' E 103°48'0 0.0
2017-Jul-15 21:30N 01°12' E 103°48'0 0.0
2017-Jul-15 21:00N 01°12' E 103°48'0 0.0
2017-Jul-15 20:30N 01°12' E 103°48'0 0.0
2017-Jul-15 19:54N 01°12' E 103°48'0 0.0
2017-Jul-15 19:27N 01°12' E 103°48'0 0.0
2017-Jul-15 18:42N 01°12' E 103°48'0 0.0
2017-Jul-15 18:30N 01°12' E 103°48'0 0.0
2017-Jul-15 18:00N 01°12' E 103°48'0 0.2
2017-Jul-15 17:24N 01°12' E 103°47'0 0.3
2017-Jul-15 16:57N 01°12' E 103°47'0 0.0
2017-Jul-15 16:03N 01°11' E 103°47'0 0.0
2017-Jul-15 15:54N 01°11' E 103°47'0 0.0
2017-Jul-15 15:24N 01°12' E 103°47'0 0.0
2017-Jul-15 15:00N 01°12' E 103°47'0 0.0
2017-Jul-15 13:57N 01°12' E 103°47'0 0.1
2017-Jul-15 13:15N 01°12' E 103°47'0 0.1
2017-Jul-15 11:57N 01°11' E 103°47'0 0.2
2017-Jul-15 10:48N 01°12' E 103°47'0 0.0
2017-Jul-15 10:27N 01°12' E 103°47'0 0.1
2017-Jul-15 10:00N 01°12' E 103°48'0 0.0
2017-Jul-15 09:21N 01°12' E 103°48'0 0.2
2017-Jul-15 09:00N 01°12' E 103°47'0 0.0
2017-Jul-15 08:30N 01°12' E 103°47'0 0.1
2017-Jul-15 07:48N 01°12' E 103°47'0 0.0
2017-Jul-15 06:16N 01°12' E 103°47'0 0.4
2017-Jul-15 06:01N 01°12' E 103°47'0 0.9
2017-Jul-15 05:30N 01°11' E 103°47'2 3.3
2017-Jul-15 05:00N 01°11' E 103°49'3 6.2
2017-Jul-15 04:31N 01°12' E 103°52'6 1.0
2017-Jul-14 22:35N 01°16' E 103°57'0 3.6
2017-Jul-14 22:30N 01°16' E 103°57'3 4.8
2017-Jul-14 21:58N 01°16' E 103°59'3 5.5
2017-Jul-14 21:30N 01°16' E 104°02'  

Dump ship's entire track history